Flight Track Log - Related Links

Times and Time Zones

All times are in EDT time to prevent confusion due to time zone crossing. See the N89KB flight status page for this flight to view local times or setup timezone preferences in your user account.

Time Position Orientation Groundspeed Altitude Reporting Facility
EDT Latitude Longitude Course Direction KTS MPH feet Rate Location/Type
Mon 05:25:42 PM 34.9689 -85.1033 90° East 126 145 5,200  Level Atlanta Center
Mon 05:26:42 PM 34.9733 -85.0628 82° East 116 133 6,200 900 Climbing Atlanta Center
Mon 05:27:42 PM 34.9778 -85.0300 81° East 132 152 7,000 800 Climbing Atlanta Center
Mon 05:28:00 PM 34.9500 -84.9652 90° East  Level FlightAware Approximate
Mon 05:28:42 PM 34.9864 -84.9819 78° East 137 158 7,800  Level Atlanta Center
Mon 05:29:00 PM 34.9500 -84.9155 90° East  Level FlightAware Approximate
Mon 05:29:42 PM 34.9911 -84.9364 83° East 132 152 8,600  Level Atlanta Center
Mon 05:30:00 PM 34.9500 -84.8658 90° East  Level FlightAware Approximate
Mon 05:30:42 PM 34.9933 -84.8881 87° East 132 152 9,500  Level Atlanta Center
Mon 05:31:00 PM 34.9500 -84.8161 90° East  Level FlightAware Approximate
Mon 05:31:42 PM 34.9958 -84.8450 86° East 132 152 10,400  Level Atlanta Center
Mon 05:32:42 PM 35.0003 -84.7994 83° East 132 152 11,100 350 Climbing Atlanta Center
Mon 05:33:42 PM 35.0089 -84.7436 79° East 145 167 11,100  Level Atlanta Center
Mon 05:34:42 PM 35.0219 -84.6806 76° East 167 192 11,100  Level Atlanta Center
Mon 05:35:42 PM 35.0367 -84.6094 76° East 189 217 11,100  Level Atlanta Center
Mon 05:36:42 PM 35.0497 -84.5436 76° East 200 230 11,100  Level Atlanta Center
Mon 05:37:42 PM 35.0583 -84.4753 81° East 200 230 11,100  Level Atlanta Center
Mon 05:38:42 PM 35.0689 -84.4067 79° East 200 230 11,100  Level Atlanta Center
Mon 05:39:42 PM 35.0794 -84.3408 79° East 200 230 11,100  Level Atlanta Center
Mon 05:40:42 PM 35.0881 -84.2747 81° East 200 230 11,100  Level Atlanta Center
Mon 05:41:42 PM 35.1047 -84.2089 73° East 200 230 11,100  Level Atlanta Center
Mon 05:42:42 PM 35.0964 -84.1403 98° East 200 230 11,100  Level Atlanta Center
Mon 05:43:42 PM 35.0922 -84.0717 94° East 195 224 11,100  Level Atlanta Center
Mon 05:44:42 PM 35.0881 -84.0058 94° East 195 224 11,100  Level Atlanta Center
Mon 05:45:42 PM 35.0839 -83.9372 94° East 200 230 11,100  Level Atlanta Center
Mon 05:46:42 PM 35.0861 -83.8711 88° East 200 230 11,100 -50 Level Atlanta Center
Mon 05:47:42 PM 35.0900 -83.8028 86° East 200 230 11,000 -300 Descending Atlanta Center
Mon 05:48:42 PM 35.0942 -83.7367 86° East 200 230 10,500 -500 Descending Atlanta Center
Mon 05:49:42 PM 35.0958 -83.6681 88° East 200 230 10,000 -400 Descending Atlanta Center
Mon 05:50:42 PM 35.0978 -83.6022 88° East 200 230 9,700 -350 Descending Atlanta Center
Mon 05:51:42 PM 35.0975 -83.5311 90° East 200 230 9,300 -350 Descending Atlanta Center
Mon 05:52:42 PM 35.0931 -83.4728 95° East 195 224 9,000 -150 Descending Atlanta Center
Mon 05:53:42 PM 35.0969 -83.4067 86° East 195 224 9,000  Level Atlanta Center
Mon 05:54:42 PM 35.1008 -83.3406 86° East 195 224 9,000  Level Atlanta Center
Mon 05:55:42 PM 35.1047 -83.2772 86° East 189 217 9,000  Level Atlanta Center
Mon 05:56:42 PM 35.1083 -83.2136 86° East 189 217 9,000  Level Atlanta Center
Mon 05:57:42 PM 35.1119 -83.1400 87° East 189 217 9,000  Level Atlanta Center
Mon 05:58:42 PM 35.1136 -83.0764 88° East 194 223 9,000  Level Atlanta Center
Mon 05:59:42 PM 35.1172 -83.0156 86° East 194 223 9,000  Level Atlanta Center
Mon 06:00:42 PM 35.1106 -82.9494 97° East 189 217 9,000  Level Atlanta Center
Mon 06:01:42 PM 35.1036 -82.8811 97° East 194 223 9,000 -150 Level Atlanta Center
Mon 06:02:42 PM 35.0947 -82.8203 100° East 194 223 8,700 -500 Descending Atlanta Center
Mon 06:03:42 PM 35.0878 -82.7544 97° East 199 229 8,000 -650 Descending Atlanta Center
Mon 06:04:42 PM 35.0725 -82.6989 109° East 189 217 7,400 -550 Descending Atlanta Center
Mon 06:05:42 PM 35.0469 -82.6408 118° Southeast 182 209 6,900 -450 Descending Atlanta Center
Mon 06:06:42 PM 35.0172 -82.6008 132° Southeast 176 203 6,500 -550 Descending Atlanta Center
Mon 06:07:42 PM 34.9853 -82.5556 131° Southeast 171 197 5,800 -800 Descending Atlanta Center
Mon 06:08:42 PM 34.9556 -82.5131 130° Southeast 171 197 4,900 -950 Descending Atlanta Center
Mon 06:09:42 PM 34.9258 -82.4706 130° Southeast 159 183 3,900 -800 Descending Atlanta Center
Mon 06:10:42 PM 34.9086 -82.4253 115° Southeast 154 177 3,300 -350 Descending Atlanta Center
Mon 06:11:42 PM 34.8892 -82.3878 122° Southeast 148 170 3,200 -100 Descending Atlanta Center
Mon 06:13:00 PM 34.8479 -82.3500 141° Southeast  Level Estimated
Mon 06:20:00 PM 34.8479 -82.3500 141° Southeast  Level Estimated
Mon 06:21:00 PM 34.8479 -82.3500 141° Southeast  Level Estimated

Login

Don't have an account? Register now (free) for customized features, flight alerts, and more!